Cape Sorell, Australia
Current Conditions -  °F | °C
As of 6:00 PM on Tuesday 21 Oct 2014 (Local Time) from YMLT Reporting Station
Clear Clear  
Wind Chill: 61°   Ceiling: Unl
Heat Index: 61°   Visibility: 6mi
Dew Point: 43°   Wind: 14mph
Humidity: 52%   Direction: 320°NW
Pressure: 30.36"   Gusts: NA
Location:  42.2°S, 145.17°E
Report Text: YMLT 210700Z AUTO 32012KT 9999 // NCD 16/06 Q1028
Loading
Personal Weather Stations






























Interactive Weather Map
Tropical Storm Tracking
New forecast layout! Learn more

10-Day Weather Forecast

Advertisements
Track Severe Weather on mobile